Time;durP1;ratioP1;P1;durP2;ratioP2;P2;SDS_P1;SDS_P2;PMS_P1;PMS_P2;Temp;Humidity;BMP_temperature;BMP_pressure;BME280_temperature;BME280_humidity;BME280_pressure;Samples;Min_cycle;Max_cycle;Signal;HPM_P1;HPM_P2
2022/08/06 00:02:09;;;;;;;4.93;1.77;;;13.90;99.90;;;;;;5039443;28;20270;-79
2022/08/06 00:04:34;;;;;;;4.20;1.83;;;13.90;99.90;;;;;;5040159;28;20236;-79
2022/08/06 00:07:00;;;;;;;2.10;1.60;;;13.90;99.90;;;;;;5039774;28;20170;-79
2022/08/06 00:09:30;;;;;;;6.17;1.87;;;13.60;99.90;;;;;;5038182;28;20577;-80
2022/08/06 00:11:57;;;;;;;2.13;1.60;;;13.60;99.90;;;;;;5039558;28;20669;-79
2022/08/06 00:14:22;;;;;;;3.53;1.60;;;13.60;99.90;;;;;;5039841;28;20645;-79
2022/08/06 00:16:48;;;;;;;2.53;1.77;;;13.70;99.90;;;;;;5036256;28;20173;-79
2022/08/06 00:19:13;;;;;;;9.60;2.00;;;13.80;99.90;;;;;;5038079;28;20176;-79
2022/08/06 00:21:41;;;;;;;2.63;1.67;;;13.90;99.90;;;;;;5036634;28;20168;-79
2022/08/06 00:24:07;;;;;;;6.47;1.70;;;13.80;99.90;;;;;;5038011;28;20179;-79
2022/08/06 00:26:32;;;;;;;6.90;1.73;;;13.60;99.90;;;;;;5036124;28;20174;-79
2022/08/06 00:28:58;;;;;;;3.43;1.70;;;13.60;99.90;;;;;;5035390;28;20178;-79
2022/08/06 00:31:23;;;;;;;3.30;1.80;;;13.40;99.90;;;;;;5035209;28;20176;-79
2022/08/06 00:33:49;;;;;;;5.37;2.13;;;13.40;99.90;;;;;;5034396;28;20610;-79
2022/08/06 00:36:14;;;;;;;2.43;1.50;;;13.40;99.90;;;;;;5036192;28;20206;-79
2022/08/06 00:38:40;;;;;;;4.10;1.80;;;13.60;99.90;;;;;;5039442;28;20180;-79
2022/08/06 00:41:05;;;;;;;3.50;1.60;;;13.50;99.90;;;;;;5039511;28;20166;-79
2022/08/06 00:43:31;;;;;;;8.77;2.37;;;13.40;99.90;;;;;;5039622;28;20253;-79
2022/08/06 00:45:57;;;;;;;4.03;1.80;;;13.40;99.90;;;;;;5038993;28;20170;-79
2022/08/06 00:48:22;;;;;;;2.10;1.80;;;13.40;99.90;;;;;;5038855;28;20178;-79
2022/08/06 00:50:48;;;;;;;3.90;2.20;;;13.40;99.90;;;;;;5038928;28;20230;-79
2022/08/06 00:53:13;;;;;;;4.80;1.90;;;13.30;99.90;;;;;;5038563;28;20260;-79
2022/08/06 00:55:39;;;;;;;2.10;1.90;;;13.20;99.90;;;;;;5039307;28;20219;-79
2022/08/06 00:58:05;;;;;;;3.03;1.90;;;13.20;99.90;;;;;;5036918;28;20209;-79
2022/08/06 01:00:32;;;;;;;4.77;1.90;;;13.20;99.90;;;;;;5037632;28;20175;-79
2022/08/06 01:02:57;;;;;;;5.93;1.77;;;13.10;99.90;;;;;;5040320;28;20248;-79
2022/08/06 01:05:23;;;;;;;2.50;1.60;;;13.10;99.90;;;;;;5038125;28;20226;-79
2022/08/06 01:07:48;;;;;;;6.27;1.87;;;13.10;99.90;;;;;;5038757;28;20664;-79
2022/08/06 01:10:14;;;;;;;3.00;1.80;;;13.20;99.90;;;;;;5038717;28;20183;-79
2022/08/06 01:12:39;;;;;;;3.90;1.83;;;13.10;99.90;;;;;;5038923;28;20196;-79
2022/08/06 01:15:06;;;;;;;7.53;2.37;;;13.10;99.90;;;;;;5039374;28;20670;-79
2022/08/06 01:18:21;;;;;;;4.30;2.03;;;13.00;99.90;;;;;;5039197;28;20214;-79
2022/08/06 01:21:35;;;;;;;6.20;2.10;;;12.80;99.90;;;;;;4976611;28;20191;-79
2022/08/06 01:24:31;;;;;;;3.63;1.90;;;12.70;99.90;;;;;;5038496;28;20192;-79
2022/08/06 01:27:34;;;;;;;4.73;1.90;;;12.70;99.90;;;;;;5037242;28;20679;-79
2022/08/06 01:30:08;;;;;;;5.13;1.70;;;12.60;99.90;;;;;;5037092;28;20180;-77
2022/08/06 01:32:40;;;;;;;2.70;1.80;;;12.60;99.90;;;;;;5036068;28;20202;-77
2022/08/06 01:35:08;;;;;;;4.73;1.80;;;12.50;99.90;;;;;;5035223;28;20228;-77
2022/08/06 01:37:41;;;;;;;10.03;2.03;;;12.50;99.90;;;;;;5036093;28;20210;-77
2022/08/06 01:40:16;;;;;;;5.80;2.00;;;12.70;99.90;;;;;;5036333;28;20192;-77
2022/08/06 01:42:43;;;;;;;5.47;2.13;;;12.70;99.90;;;;;;5036490;28;20198;-77
2022/08/06 01:45:15;;;;;;;6.33;1.97;;;12.80;99.90;;;;;;5036188;28;20187;-77
2022/08/06 01:47:45;;;;;;;3.17;1.73;;;12.70;99.90;;;;;;5034450;28;20195;-79
2022/08/06 01:50:12;;;;;;;2.40;1.50;;;12.30;99.90;;;;;;5036480;28;20185;-77
2022/08/06 01:52:43;;;;;;;6.23;1.93;;;12.40;99.90;;;;;;5035094;28;20204;-78
2022/08/06 01:55:13;;;;;;;2.47;1.87;;;12.50;99.90;;;;;;5036314;28;20171;-77
2022/08/06 01:57:40;;;;;;;2.70;1.90;;;12.50;99.90;;;;;;5036087;28;20166;-77
2022/08/06 02:00:06;;;;;;;2.63;1.80;;;12.50;99.90;;;;;;5035885;28;20665;-77
2022/08/06 02:02:35;;;;;;;4.20;1.87;;;12.50;99.90;;;;;;5034591;28;20199;-77
2022/08/06 02:05:02;;;;;;;4.07;1.80;;;12.40;99.90;;;;;;5034362;28;20170;-77
2022/08/06 02:07:36;;;;;;;3.47;1.90;;;12.20;99.90;;;;;;5035489;28;20593;-79
2022/08/06 02:10:04;;;;;;;3.50;1.87;;;12.20;99.90;;;;;;5035455;28;20192;-77
2022/08/06 02:12:32;;;;;;;4.03;2.07;;;12.20;99.90;;;;;;5034657;28;20616;-77
2022/08/06 02:15:13;;;;;;;4.40;1.90;;;12.40;99.90;;;;;;5035605;28;20198;-77
2022/08/06 02:17:43;;;;;;;6.20;2.07;;;12.30;99.90;;;;;;5037317;28;20165;-79
2022/08/06 02:20:10;;;;;;;5.73;2.40;;;12.40;99.90;;;;;;5036843;28;20231;-79
2022/08/06 02:22:37;;;;;;;2.83;1.70;;;12.30;99.90;;;;;;5036676;28;20205;-79
2022/08/06 02:25:08;;;;;;;5.27;2.00;;;12.30;99.90;;;;;;5035878;28;20227;-79
2022/08/06 02:27:36;;;;;;;7.57;2.60;;;12.30;99.90;;;;;;5035775;28;20171;-79
2022/08/06 02:30:03;;;;;;;6.20;2.13;;;12.40;99.90;;;;;;5038812;28;20166;-79
2022/08/06 02:32:28;;;;;;;6.93;2.20;;;12.40;99.90;;;;;;5043679;28;20195;-79
2022/08/06 02:34:54;;;;;;;3.97;2.03;;;12.50;99.90;;;;;;5045167;28;20756;-79
2022/08/06 02:37:43;;;;;;;5.20;2.10;;;12.50;99.90;;;;;;5045435;28;20167;-79
2022/08/06 02:40:27;;;;;;;12.97;2.47;;;12.30;99.90;;;;;;5043886;28;20668;-79
2022/08/06 02:43:08;;;;;;;4.33;2.13;;;12.10;99.90;;;;;;5043450;28;20182;-79
2022/08/06 02:45:58;;;;;;;8.43;2.47;;;12.30;99.90;;;;;;5041090;28;20174;-79
2022/08/06 02:48:34;;;;;;;2.47;2.10;;;12.40;99.90;;;;;;5040074;28;20174;-79
2022/08/06 02:51:04;;;;;;;3.10;2.30;;;12.30;99.90;;;;;;5040584;28;20181;-79
2022/08/06 02:53:43;;;;;;;3.67;2.20;;;12.30;99.90;;;;;;5039624;28;20212;-79
2022/08/06 02:56:13;;;;;;;5.30;2.10;;;12.30;99.90;;;;;;5040633;28;20169;-79
2022/08/06 02:58:47;;;;;;;5.70;1.97;;;12.20;99.90;;;;;;5038638;28;20668;-79
2022/08/06 03:01:25;;;;;;;2.43;2.20;;;12.10;99.90;;;;;;5038104;28;20651;-79
2022/08/06 03:03:53;;;;;;;4.43;2.00;;;12.20;99.90;;;;;;5039747;28;20202;-79
2022/08/06 03:06:20;;;;;;;4.80;2.17;;;12.20;99.90;;;;;;5037011;28;20721;-79
2022/08/06 03:08:46;;;;;;;3.73;1.93;;;12.20;99.90;;;;;;5036883;28;20206;-79
2022/08/06 03:11:14;;;;;;;5.63;2.20;;;12.20;99.90;;;;;;5038418;28;20170;-79
2022/08/06 03:13:43;;;;;;;2.80;2.10;;;12.00;99.90;;;;;;5038964;28;20265;-79
2022/08/06 03:16:10;;;;;;;5.50;2.40;;;12.10;99.90;;;;;;5037760;28;20177;-79
2022/08/06 03:18:37;;;;;;;5.00;2.30;;;11.90;99.90;;;;;;5036225;28;20604;-79
2022/08/06 03:21:04;;;;;;;9.40;2.57;;;11.90;99.90;;;;;;5038159;28;20592;-79
2022/08/06 03:23:31;;;;;;;3.90;2.20;;;11.90;99.90;;;;;;5057835;23;20864;-80
2022/08/06 03:25:57;;;;;;;7.80;2.20;;;11.90;99.90;;;;;;5035089;28;20201;-79
2022/08/06 03:28:25;;;;;;;3.70;2.20;;;11.90;99.90;;;;;;5035251;28;20173;-78
2022/08/06 03:30:52;;;;;;;4.90;2.40;;;11.70;99.90;;;;;;5035010;28;20252;-79
2022/08/06 03:33:19;;;;;;;9.17;2.87;;;11.60;99.90;;;;;;5035272;28;20288;-80
2022/08/06 03:35:45;;;;;;;6.07;2.20;;;11.60;99.90;;;;;;5034983;28;20213;-78
2022/08/06 03:38:13;;;;;;;6.67;2.53;;;11.60;99.90;;;;;;5034240;28;20545;-78
2022/08/06 03:40:45;;;;;;;6.83;3.00;;;11.50;99.90;;;;;;5034813;28;20173;-80
2022/08/06 03:43:11;;;;;;;5.63;2.80;;;11.70;99.90;;;;;;5033990;28;20173;-78
2022/08/06 03:45:43;;;;;;;4.90;2.73;;;11.60;99.90;;;;;;5033107;28;20267;-77
2022/08/06 03:48:14;;;;;;;8.57;3.00;;;11.40;99.90;;;;;;5034606;28;20172;-77
2022/08/06 03:50:47;;;;;;;7.80;2.67;;;11.40;99.90;;;;;;5035114;28;20183;-79
2022/08/06 03:53:20;;;;;;;5.77;3.00;;;11.40;99.90;;;;;;5034340;28;20242;-79
2022/08/06 03:55:47;;;;;;;9.90;3.70;;;11.30;99.90;;;;;;5034902;28;20201;-78
2022/08/06 03:58:14;;;;;;;6.10;3.27;;;11.20;99.90;;;;;;5034996;28;20172;-77
2022/08/06 04:00:45;;;;;;;9.17;3.17;;;11.20;99.90;;;;;;5034546;28;20185;-80
2022/08/06 04:03:13;;;;;;;4.77;3.40;;;11.30;99.90;;;;;;5034373;28;20178;-79
2022/08/06 04:05:41;;;;;;;4.63;3.37;;;11.40;99.90;;;;;;5036485;28;20207;-77
2022/08/06 04:08:09;;;;;;;8.30;3.40;;;11.40;99.90;;;;;;5034777;28;20176;-78
2022/08/06 04:10:39;;;;;;;6.10;2.90;;;11.30;99.90;;;;;;5033177;28;20178;-78
2022/08/06 04:13:09;;;;;;;6.53;3.27;;;11.20;99.90;;;;;;5034622;28;20201;-80
2022/08/06 04:15:37;;;;;;;8.43;3.10;;;11.20;99.90;;;;;;5035207;28;20202;-79
2022/08/06 04:18:08;;;;;;;6.30;3.27;;;11.10;99.90;;;;;;5035738;28;20165;-78
2022/08/06 04:20:35;;;;;;;4.37;3.33;;;11.10;99.90;;;;;;5037872;28;20169;-80
2022/08/06 04:23:01;;;;;;;3.20;2.77;;;11.30;99.90;;;;;;5035880;28;20193;-78
2022/08/06 04:25:30;;;;;;;7.20;3.20;;;11.30;99.90;;;;;;5036825;28;20200;-79
2022/08/06 04:27:57;;;;;;;6.10;3.13;;;11.30;99.90;;;;;;5038330;28;20180;-79
2022/08/06 04:30:28;;;;;;;5.30;3.40;;;11.30;99.90;;;;;;5037316;28;20177;-79
2022/08/06 04:32:54;;;;;;;10.30;4.03;;;11.40;99.90;;;;;;5038121;28;20174;-79
2022/08/06 04:35:21;;;;;;;5.80;3.83;;;11.40;99.90;;;;;;5037698;28;20201;-80
2022/08/06 04:37:48;;;;;;;9.83;3.90;;;11.50;99.90;;;;;;5036045;28;20177;-80
2022/08/06 04:40:14;;;;;;;5.83;3.70;;;11.40;99.90;;;;;;5034279;28;20633;-78
2022/08/06 04:42:40;;;;;;;8.00;3.30;;;11.40;99.90;;;;;;5033677;28;20200;-79
2022/08/06 04:45:10;;;;;;;9.73;3.87;;;11.50;99.90;;;;;;5031614;28;20202;-78
2022/08/06 04:47:36;;;;;;;8.00;4.03;;;11.50;99.90;;;;;;5033483;28;20221;-78
2022/08/06 04:50:02;;;;;;;8.27;3.60;;;11.50;99.90;;;;;;5033198;28;20183;-78
2022/08/06 04:52:29;;;;;;;3.73;3.43;;;11.70;99.90;;;;;;5031848;28;20175;-79
2022/08/06 04:54:54;;;;;;;11.13;3.67;;;11.80;99.90;;;;;;5032842;28;20713;-80
2022/08/06 04:57:20;;;;;;;7.20;3.57;;;11.80;99.90;;;;;;5032937;28;20178;-80
2022/08/06 04:59:46;;;;;;;6.83;3.60;;;11.80;99.90;;;;;;5032963;28;20232;-78
2022/08/06 05:02:12;;;;;;;7.10;3.10;;;11.90;99.90;;;;;;5032877;28;20638;-78
2022/08/06 05:04:38;;;;;;;7.03;3.40;;;12.10;99.90;;;;;;5033078;28;20294;-78
2022/08/06 05:07:19;;;;;;;8.00;3.73;;;12.40;99.90;;;;;;5033021;28;20663;-78
2022/08/06 05:09:45;;;;;;;7.20;2.90;;;12.50;99.90;;;;;;5032764;28;20182;-79
2022/08/06 05:12:31;;;;;;;6.17;3.50;;;12.50;99.90;;;;;;5033903;28;20674;-78
2022/08/06 05:15:19;;;;;;;10.60;2.93;;;12.50;99.90;;;;;;5033703;28;20699;-80
2022/08/06 05:18:15;;;;;;;6.03;3.17;;;12.60;99.90;;;;;;5033365;28;20180;-80
2022/08/06 05:20:46;;;;;;;6.97;2.73;;;12.70;99.90;;;;;;5032953;28;20196;-79
2022/08/06 05:23:18;;;;;;;7.13;2.97;;;12.90;99.90;;;;;;5036116;28;20600;-81
2022/08/06 05:25:44;;;;;;;8.93;2.90;;;12.90;99.90;;;;;;5037734;28;20201;-78
2022/08/06 05:28:09;;;;;;;8.43;2.93;;;13.10;99.90;;;;;;5039816;28;20252;-80
2022/08/06 05:30:45;;;;;;;6.17;2.70;;;13.10;99.90;;;;;;5038386;28;20596;-79
2022/08/06 05:33:12;;;;;;;3.70;3.07;;;13.20;99.90;;;;;;5036942;28;20203;-80
2022/08/06 05:35:37;;;;;;;5.23;2.97;;;13.40;99.90;;;;;;5038194;28;20657;-80
2022/08/06 05:38:03;;;;;;;7.83;2.60;;;13.50;99.90;;;;;;5037791;28;20181;-81
2022/08/06 05:40:35;;;;;;;9.67;2.60;;;13.50;99.90;;;;;;5038722;28;20181;-79
2022/08/06 05:43:00;;;;;;;5.37;2.73;;;13.50;99.90;;;;;;5038057;28;20197;-80
2022/08/06 05:45:26;;;;;;;6.67;2.97;;;13.50;99.90;;;;;;5038468;28;20201;-78
2022/08/06 05:47:55;;;;;;;4.20;2.80;;;13.60;99.90;;;;;;5037987;28;20177;-79
2022/08/06 05:50:26;;;;;;;6.63;2.50;;;13.70;99.90;;;;;;5038907;28;20629;-80
2022/08/06 05:53:06;;;;;;;10.37;2.73;;;13.80;99.90;;;;;;5038141;28;20184;-80
2022/08/06 05:55:54;;;;;;;4.13;2.43;;;14.00;99.90;;;;;;5039482;28;20263;-79
2022/08/06 05:58:33;;;;;;;5.70;2.37;;;14.20;99.90;;;;;;5039789;28;20192;-81
2022/08/06 06:01:02;;;;;;;9.33;2.70;;;14.30;99.90;;;;;;5038765;28;20178;-81
2022/08/06 06:03:31;;;;;;;3.40;2.37;;;14.50;99.90;;;;;;5037964;28;20180;-80
2022/08/06 06:05:59;;;;;;;5.67;2.43;;;14.60;99.90;;;;;;5039081;28;20197;-79
2022/08/06 06:08:25;;;;;;;5.80;2.27;;;15.00;99.90;;;;;;5036782;28;20178;-78
2022/08/06 06:10:52;;;;;;;5.77;1.87;;;14.90;99.90;;;;;;5039115;28;20182;-80
2022/08/06 06:13:19;;;;;;;2.37;1.60;;;15.30;99.90;;;;;;5039134;28;20206;-80
2022/08/06 06:15:53;;;;;;;4.60;1.60;;;16.10;99.90;;;;;;5039687;28;20205;-81
2022/08/06 06:18:53;;;;;;;3.47;1.70;;;16.30;99.90;;;;;;5039778;28;20188;-82
2022/08/06 06:21:25;;;;;;;1.80;1.40;;;16.80;99.90;;;;;;5040658;28;20178;-81
2022/08/06 06:24:06;;;;;;;2.22;1.55;;;17.10;99.90;;;;;;5042445;28;20198;-80
2022/08/06 06:26:55;;;;;;;2.65;1.45;;;17.20;99.90;;;;;;5040114;28;20173;-80
2022/08/06 06:29:32;;;;;;;5.70;2.13;;;17.40;99.90;;;;;;5035057;28;20174;-79
2022/08/06 06:32:04;;;;;;;4.53;1.75;;;17.60;99.90;;;;;;5033514;28;20188;-78
2022/08/06 06:34:48;;;;;;;2.75;1.48;;;17.80;99.90;;;;;;5033050;28;20206;-79
2022/08/06 06:37:53;;;;;;;4.95;1.50;;;18.40;99.90;;;;;;5033310;28;20233;-80
2022/08/06 06:40:31;;;;;;;4.97;1.45;;;18.80;99.90;;;;;;5033228;28;20173;-79
2022/08/06 06:43:12;;;;;;;3.92;1.33;;;19.00;99.90;;;;;;5032801;28;20174;-79
2022/08/06 06:45:45;;;;;;;3.97;1.27;;;18.60;99.90;;;;;;5032743;28;20189;-77
2022/08/06 06:48:23;;;;;;;1.48;1.10;;;19.30;99.90;;;;;;5033165;28;20198;-78
2022/08/06 06:50:53;;;;;;;3.38;1.20;;;19.70;99.90;;;;;;5033375;28;20166;-81
2022/08/06 06:53:20;;;;;;;2.70;1.10;;;19.80;99.90;;;;;;5032611;28;20225;-79
2022/08/06 06:55:51;;;;;;;2.60;1.50;;;19.80;99.90;;;;;;5032718;28;20263;-78
2022/08/06 06:58:21;;;;;;;4.35;1.45;;;19.90;99.90;;;;;;5031302;28;20586;-80
2022/08/06 07:00:47;;;;;;;2.10;1.10;;;19.90;99.90;;;;;;5032905;28;20178;-81
2022/08/06 07:03:14;;;;;;;2.75;1.67;;;20.20;99.90;;;;;;5032467;28;20223;-81
2022/08/06 07:05:45;;;;;;;2.53;1.50;;;20.70;99.90;;;;;;5033268;28;20201;-78
2022/08/06 07:08:14;;;;;;;1.80;1.20;;;20.50;99.90;;;;;;5032245;28;20173;-81
2022/08/06 07:10:42;;;;;;;2.63;1.10;;;20.60;99.90;;;;;;5032357;28;20495;-80
2022/08/06 07:13:10;;;;;;;3.08;1.40;;;20.70;99.90;;;;;;5032384;28;20595;-80
2022/08/06 07:15:36;;;;;;;2.72;0.93;;;20.60;99.90;;;;;;5032592;28;20666;-79
2022/08/06 07:18:04;;;;;;;1.13;0.80;;;21.40;99.90;;;;;;5032533;28;20181;-79
2022/08/06 07:20:31;;;;;;;1.13;0.90;;;21.20;99.90;;;;;;5032479;28;20178;-80
2022/08/06 07:23:01;;;;;;;2.55;0.90;;;21.10;99.90;;;;;;5031649;28;20186;-78
2022/08/06 07:25:28;;;;;;;3.83;1.20;;;21.00;99.90;;;;;;5034511;28;20193;-78
2022/08/06 07:27:54;;;;;;;1.00;0.90;;;21.50;99.90;;;;;;5032641;28;20260;-78
2022/08/06 07:30:21;;;;;;;2.03;1.08;;;21.20;99.90;;;;;;5032081;28;20174;-77
2022/08/06 07:32:49;;;;;;;2.63;0.88;;;21.90;99.90;;;;;;5031607;28;20670;-79
2022/08/06 07:35:17;;;;;;;1.80;1.02;;;22.20;99.90;;;;;;5031880;28;20251;-79
2022/08/06 07:37:52;;;;;;;1.92;0.95;;;22.10;99.90;;;;;;5032295;28;20170;-80
2022/08/06 07:40:28;;;;;;;1.40;0.80;;;22.10;99.60;;;;;;5032369;28;20170;-78
2022/08/06 07:42:59;;;;;;;2.22;0.75;;;22.20;98.20;;;;;;5032063;28;20170;-80
2022/08/06 07:45:28;;;;;;;2.78;0.77;;;22.40;98.10;;;;;;5032113;28;20185;-80
2022/08/06 07:47:56;;;;;;;1.10;0.90;;;22.40;99.00;;;;;;5032560;28;20169;-79
2022/08/06 07:50:23;;;;;;;4.43;1.00;;;22.80;97.60;;;;;;5032450;28;20722;-79
2022/08/06 07:52:54;;;;;;;1.00;0.68;;;22.50;97.80;;;;;;5031637;28;20593;-82
2022/08/06 07:55:24;;;;;;;1.33;0.70;;;22.10;96.70;;;;;;5034682;28;20194;-82
2022/08/06 07:57:52;;;;;;;1.80;0.73;;;22.70;97.00;;;;;;5032600;28;20182;-80
2022/08/06 08:00:17;;;;;;;0.60;0.60;;;22.60;97.00;;;;;;5031895;28;20210;-79
2022/08/06 08:06:17;;;;;;;2.05;0.90;;;23.20;96.40;;;;;;5030864;28;20717;-81
2022/08/06 08:08:14;;;;;;;2.45;0.80;;;22.90;96.30;;;;;;5033096;28;20657;-81
2022/08/06 08:10:41;;;;;;;1.83;0.80;;;21.90;95.80;;;;;;5031349;28;20174;-79
2022/08/06 08:13:07;;;;;;;2.83;0.60;;;21.60;96.30;;;;;;5031085;28;20265;-80
2022/08/06 08:15:33;;;;;;;0.52;0.50;;;22.60;95.80;;;;;;5032740;28;20655;-80
2022/08/06 08:17:59;;;;;;;1.65;0.70;;;22.90;95.00;;;;;;5031669;28;20189;-80
2022/08/06 08:20:30;;;;;;;0.50;0.50;;;22.70;94.70;;;;;;5031042;28;20261;-80
2022/08/06 08:22:56;;;;;;;1.70;0.82;;;22.40;92.20;;;;;;5031042;28;20212;-81
2022/08/06 08:25:21;;;;;;;0.63;0.63;;;22.80;93.30;;;;;;5030417;28;20536;-81
2022/08/06 08:27:47;;;;;;;3.63;0.70;;;22.60;91.20;;;;;;5031234;28;20181;-81
2022/08/06 08:30:12;;;;;;;1.35;0.55;;;22.90;92.90;;;;;;5032010;28;20174;-78
2022/08/06 08:32:38;;;;;;;1.33;0.70;;;23.20;93.00;;;;;;5030862;28;20166;-80
2022/08/06 08:35:04;;;;;;;1.48;0.50;;;23.30;92.10;;;;;;5030522;28;20293;-80
2022/08/06 08:37:30;;;;;;;0.82;0.60;;;23.60;91.90;;;;;;5030757;28;20174;-79
2022/08/06 08:39:55;;;;;;;2.10;0.60;;;23.20;91.20;;;;;;5030796;28;20220;-80
2022/08/06 08:42:39;;;;;;;1.77;0.70;;;23.20;92.10;;;;;;5031579;28;20537;-80
2022/08/06 08:45:06;;;;;;;0.93;0.50;;;23.20;90.10;;;;;;5030841;28;20612;-78
2022/08/06 08:47:34;;;;;;;0.50;0.50;;;23.10;90.40;;;;;;5032097;28;20180;-79
2022/08/06 08:50:02;;;;;;;0.90;0.60;;;23.10;92.00;;;;;;5031793;28;20575;-81
2022/08/06 08:52:39;;;;;;;2.58;0.75;;;23.90;91.90;;;;;;5031071;28;20170;-79
2022/08/06 08:55:09;;;;;;;0.63;0.50;;;23.80;91.60;;;;;;5031712;28;20212;-78
2022/08/06 08:57:36;;;;;;;0.80;0.70;;;23.70;87.80;;;;;;5033341;28;20174;-80
2022/08/06 09:00:04;;;;;;;1.00;0.52;;;23.90;89.70;;;;;;5035657;28;20162;-80
2022/08/06 09:02:30;;;;;;;0.73;0.60;;;24.00;89.80;;;;;;5035315;28;20638;-81
2022/08/06 09:04:57;;;;;;;0.52;0.52;;;23.50;88.60;;;;;;5036227;28;20612;-80
2022/08/06 09:07:23;;;;;;;1.02;0.70;;;23.70;91.20;;;;;;5035441;28;20283;-81
2022/08/06 09:09:49;;;;;;;1.80;0.73;;;23.60;90.20;;;;;;5035649;28;20722;-80
2022/08/06 09:12:16;;;;;;;2.67;1.00;;;22.70;88.50;;;;;;5047372;22;20320;-79
2022/08/06 09:14:43;;;;;;;0.70;0.70;;;23.30;89.00;;;;;;5019010;28;20297;-79
2022/08/06 09:17:09;;;;;;;0.98;0.68;;;22.50;90.10;;;;;;5021568;28;20205;-79
2022/08/06 09:19:35;;;;;;;0.57;0.47;;;23.10;90.80;;;;;;5023631;28;20197;-79
2022/08/06 09:22:01;;;;;;;1.52;0.70;;;23.70;90.00;;;;;;5022295;28;20257;-79
2022/08/06 09:24:27;;;;;;;2.47;0.68;;;24.30;89.00;;;;;;5022648;28;20182;-79
2022/08/06 09:27:05;;;;;;;0.60;0.60;;;23.90;88.40;;;;;;5023419;28;20211;-79
2022/08/06 09:29:32;;;;;;;2.85;0.80;;;24.50;87.70;;;;;;5023133;28;20202;-79
2022/08/06 09:31:58;;;;;;;0.63;0.52;;;24.50;83.80;;;;;;5023667;28;20233;-79
2022/08/06 09:34:35;;;;;;;2.65;0.70;;;24.30;85.90;;;;;;5024013;28;20225;-80
2022/08/06 09:37:01;;;;;;;2.05;0.80;;;24.30;87.50;;;;;;5024823;28;20197;-80
2022/08/06 09:39:31;;;;;;;2.28;0.70;;;24.20;87.80;;;;;;5032782;28;20189;-80
2022/08/06 09:41:57;;;;;;;1.08;0.65;;;23.90;88.50;;;;;;5027429;28;20515;-80
2022/08/06 09:44:23;;;;;;;3.63;0.80;;;24.40;88.80;;;;;;5026060;28;20163;-80
2022/08/06 09:46:52;;;;;;;1.85;0.82;;;24.00;87.80;;;;;;5025213;28;20206;-80
2022/08/06 09:49:18;;;;;;;0.60;0.57;;;24.80;87.30;;;;;;5027096;28;20191;-80
2022/08/06 09:51:44;;;;;;;2.30;0.70;;;24.90;88.10;;;;;;5024268;28;20182;-80
2022/08/06 09:54:15;;;;;;;0.63;0.63;;;25.50;87.20;;;;;;5022344;28;20198;-80
2022/08/06 09:56:42;;;;;;;2.10;0.60;;;25.40;85.00;;;;;;5022991;28;20166;-80
2022/08/06 09:59:09;;;;;;;1.17;0.80;;;23.90;85.50;;;;;;5022560;28;20243;-80
2022/08/06 10:01:42;;;;;;;1.88;0.80;;;23.80;88.90;;;;;;5024098;28;20162;-80
2022/08/06 10:04:25;;;;;;;2.60;0.75;;;23.70;88.60;;;;;;5022166;28;20175;-80
2022/08/06 10:06:56;;;;;;;2.70;0.90;;;24.70;87.20;;;;;;5021676;28;20185;-80
2022/08/06 10:09:23;;;;;;;2.47;0.63;;;23.90;85.40;;;;;;5020339;28;20241;-80
2022/08/06 10:11:48;;;;;;;2.70;0.75;;;24.40;83.70;;;;;;5020168;28;20198;-80
2022/08/06 10:14:22;;;;;;;4.82;0.60;;;25.80;85.10;;;;;;5020426;28;20205;-80
2022/08/06 10:17:13;;;;;;;0.68;0.60;;;24.40;84.70;;;;;;5021806;28;20283;-80
2022/08/06 10:19:41;;;;;;;0.75;0.75;;;25.00;85.60;;;;;;5018631;28;20567;-80
2022/08/06 10:22:15;;;;;;;0.60;0.60;;;25.40;83.90;;;;;;5019943;28;20163;-80
2022/08/06 10:24:42;;;;;;;4.85;0.90;;;24.90;83.20;;;;;;5020096;28;20179;-80
2022/08/06 10:27:10;;;;;;;2.50;0.82;;;23.80;84.60;;;;;;5027477;28;20174;-80
2022/08/06 10:29:41;;;;;;;2.88;0.95;;;24.70;84.00;;;;;;5026938;28;20233;-80
2022/08/06 10:32:15;;;;;;;1.63;0.80;;;24.60;83.80;;;;;;5025877;28;20265;-80
2022/08/06 10:34:44;;;;;;;0.52;0.52;;;25.20;83.60;;;;;;5027106;28;20220;-80
2022/08/06 10:37:11;;;;;;;2.42;0.90;;;24.20;82.70;;;;;;5028257;28;20163;-80
2022/08/06 10:39:42;;;;;;;1.48;0.70;;;25.50;84.50;;;;;;5025124;28;20194;-80
2022/08/06 10:42:08;;;;;;;1.13;0.68;;;25.10;83.80;;;;;;5026653;28;20171;-80
2022/08/06 10:44:35;;;;;;;4.40;0.77;;;24.90;82.00;;;;;;5025370;28;20257;-80
2022/08/06 10:47:01;;;;;;;1.65;0.70;;;24.90;87.70;;;;;;5024346;28;20181;-80
2022/08/06 10:49:29;;;;;;;1.60;0.70;;;26.00;83.50;;;;;;5026082;28;20191;-80
2022/08/06 10:51:56;;;;;;;2.08;0.60;;;25.70;81.60;;;;;;5024583;28;20238;-80
2022/08/06 10:54:22;;;;;;;1.23;0.70;;;24.70;84.00;;;;;;5024341;28;20217;-80
2022/08/06 10:56:48;;;;;;;1.58;0.73;;;24.80;80.60;;;;;;5026154;28;20258;-80
2022/08/06 10:59:14;;;;;;;2.65;0.73;;;24.70;84.50;;;;;;5025348;28;20187;-80
2022/08/06 11:02:05;;;;;;;1.75;0.60;;;23.80;82.80;;;;;;5024752;28;20245;-80
2022/08/06 11:04:37;;;;;;;2.25;0.70;;;25.40;83.70;;;;;;5019625;28;20241;-80
2022/08/06 11:07:34;;;;;;;1.35;0.70;;;25.20;79.60;;;;;;5017531;28;20186;-80
2022/08/06 11:10:22;;;;;;;1.45;0.80;;;23.90;83.20;;;;;;5016008;28;20231;-80
2022/08/06 11:12:50;;;;;;;0.85;0.70;;;24.60;84.10;;;;;;5015559;28;20198;-80
2022/08/06 11:15:16;;;;;;;0.85;0.70;;;24.90;83.70;;;;;;5015681;28;20202;-80
2022/08/06 11:18:02;;;;;;;0.60;0.60;;;25.50;83.30;;;;;;5016063;28;20174;-80
2022/08/06 11:20:36;;;;;;;1.90;0.60;;;25.30;78.10;;;;;;5014498;28;20245;-80
2022/08/06 11:23:22;;;;;;;1.85;0.65;;;24.60;81.40;;;;;;5016611;28;20163;-80
2022/08/06 11:25:50;;;;;;;1.88;0.70;;;25.10;83.00;;;;;;5017561;28;20353;-80
2022/08/06 11:28:52;;;;;;;1.60;0.80;;;25.80;81.10;;;;;;5017243;28;20163;-80
2022/08/06 11:31:30;;;;;;;1.70;0.95;;;25.40;82.00;;;;;;5015795;28;20170;-80
2022/08/06 11:34:02;;;;;;;5.68;0.80;;;25.20;80.40;;;;;;5018595;28;20229;-80
2022/08/06 11:36:41;;;;;;;1.77;0.73;;;24.70;79.10;;;;;;5021156;28;20228;-80
2022/08/06 11:39:07;;;;;;;1.05;0.50;;;25.10;78.00;;;;;;5019615;28;20191;-80
2022/08/06 11:41:44;;;;;;;1.98;0.63;;;25.40;78.10;;;;;;5017390;28;20253;-80
2022/08/06 11:44:10;;;;;;;1.55;0.80;;;25.20;76.40;;;;;;5016128;28;20170;-80
2022/08/06 11:46:40;;;;;;;1.27;0.60;;;25.70;75.90;;;;;;5013828;28;20697;-80
2022/08/06 11:49:22;;;;;;;4.05;0.68;;;26.60;76.20;;;;;;5013648;28;20201;-80
2022/08/06 11:51:52;;;;;;;1.00;0.80;;;27.00;78.50;;;;;;5014225;28;20245;-80
2022/08/06 11:54:18;;;;;;;0.77;0.70;;;25.40;79.20;;;;;;5014276;28;20221;-80
2022/08/06 11:57:01;;;;;;;2.28;0.80;;;24.40;80.70;;;;;;5013029;28;20194;-80
2022/08/06 11:59:34;;;;;;;1.75;0.95;;;24.00;79.20;;;;;;5016006;28;20190;-80
2022/08/06 12:02:05;;;;;;;2.38;0.70;;;24.70;80.80;;;;;;5015921;28;20225;-80
2022/08/06 12:04:38;;;;;;;1.95;0.73;;;24.20;79.90;;;;;;5015401;28;20628;-80
2022/08/06 12:07:23;;;;;;;4.57;0.75;;;24.20;80.50;;;;;;5015875;28;20178;-80
2022/08/06 12:10:06;;;;;;;3.40;0.70;;;23.90;78.00;;;;;;5019243;28;20221;-80
2022/08/06 12:12:43;;;;;;;1.08;0.85;;;23.80;80.10;;;;;;5020784;28;20618;-80
2022/08/06 12:15:11;;;;;;;1.25;0.60;;;24.60;80.00;;;;;;5018567;28;20210;-80
2022/08/06 12:17:41;;;;;;;0.88;0.60;;;24.90;79.60;;;;;;5020302;28;20165;-80
2022/08/06 12:20:08;;;;;;;4.05;0.82;;;24.30;78.70;;;;;;5021178;28;20574;-80
2022/08/06 12:22:35;;;;;;;1.48;0.75;;;23.40;82.60;;;;;;5020995;28;20167;-80
2022/08/06 12:25:06;;;;;;;0.60;0.60;;;23.30;81.70;;;;;;5020862;28;20181;-80
2022/08/06 12:27:33;;;;;;;1.13;0.70;;;23.50;81.30;;;;;;5021982;28;20178;-80
2022/08/06 12:30:01;;;;;;;0.77;0.77;;;23.60;80.10;;;;;;5020065;28;20201;-80
2022/08/06 12:32:33;;;;;;;0.60;0.60;;;23.80;82.20;;;;;;5019263;28;20201;-80
2022/08/06 12:35:25;;;;;;;1.63;0.80;;;24.30;82.80;;;;;;5019729;28;20198;-80
2022/08/06 12:37:50;;;;;;;0.52;0.50;;;24.60;79.80;;;;;;5017446;28;20214;-80
2022/08/06 12:40:24;;;;;;;1.63;0.70;;;23.50;79.60;;;;;;5019205;28;20195;-80
2022/08/06 12:42:50;;;;;;;0.70;0.70;;;23.10;82.80;;;;;;5015692;28;20266;-80
2022/08/06 12:45:27;;;;;;;0.98;0.70;;;23.10;82.00;;;;;;5016630;28;20185;-80
2022/08/06 12:48:00;;;;;;;0.90;0.70;;;23.10;82.50;;;;;;5016582;28;20639;-80
2022/08/06 12:50:27;;;;;;;2.10;0.80;;;22.90;83.40;;;;;;5016145;28;20659;-80
2022/08/06 12:53:03;;;;;;;1.73;0.90;;;23.30;82.70;;;;;;5017320;28;20422;-80
2022/08/06 12:55:30;;;;;;;2.58;0.50;;;23.10;81.70;;;;;;5017534;28;20174;-80
2022/08/06 12:57:57;;;;;;;0.60;0.60;;;22.70;82.90;;;;;;5018425;28;20171;-80
2022/08/06 13:00:23;;;;;;;1.05;0.95;;;22.70;83.90;;;;;;5018921;28;20183;-80
2022/08/06 13:02:50;;;;;;;1.15;1.10;;;22.90;82.70;;;;;;5017767;28;20170;-80
2022/08/06 13:05:16;;;;;;;2.90;0.75;;;22.80;82.70;;;;;;5019070;28;20930;-80
2022/08/06 13:07:42;;;;;;;2.50;0.70;;;22.90;82.50;;;;;;5016396;28;20845;-80